This is the latest recevied weather packets stored in our database for station/object VE2JJ-13. If no packets are shown the sender has not sent any weather packets the latest 1 day(s).
| Time | Temp. | Humidity | Pressure | Rain* | Wind** | Luminosity | Snow |
|---|---|---|---|---|---|---|---|
| 1778014861 | 22.22° C | 55% | 993 hPa | 0 mm | - | - | - |
| 1778012670 | 22.78° C | 55% | 992.8 hPa | 0 mm | - | - | - |
| 1778011110 | 22.22° C | 57% | 992.9 hPa | 0 mm | - | - | - |
| 1778009008 | 21.11° C | 60% | 992.7 hPa | 0 mm | - | - | - |
| 1778008680 | 21.11° C | 60% | 992.7 hPa | 0 mm | - | - | - |
| 1778007448 | 22.78° C | 55% | 992.6 hPa | 0 mm | - | - | - |
| 1778006819 | 22.22° C | 57% | 992.8 hPa | 0 mm | - | - | - |
| 1778006489 | 21.67° C | 57% | 992.8 hPa | 0 mm | - | - | - |
| 1778006187 | 21.11° C | 57% | 992.9 hPa | 0 mm | - | - | - |
| 1778003608 | 21.67° C | 58% | 992.8 hPa | 0 mm | - | - | - |
| 1778002677 | 21.67° C | 58% | 992.5 hPa | 0 mm | - | - | - |
| 1778002379 | 21.67° C | 58% | 992.5 hPa | 0 mm | - | - | - |
| 1778002078 | 21.67° C | 58% | 992.5 hPa | 0.25 mm | - | - | - |
| 1778001749 | 20.56° C | 60% | 992.5 hPa | 1.02 mm | - | - | - |
| 1778000818 | 18.89° C | 67% | 992.6 hPa | 1.27 mm | - | - | - |
| 1777999829 | 17.78° C | 70% | 992.6 hPa | 1.27 mm | - | - | - |
| 1777999198 | 17.78° C | 73% | 992.8 hPa | 1.27 mm | - | - | - |
| 1777998571 | 18.33° C | 73% | 992.8 hPa | 1.02 mm | - | - | - |
| 1777997937 | 19.44° C | 66% | 992.6 hPa | 0.25 mm | - | - | - |
| 1777995717 | 20.56° C | 58% | 992.9 hPa | 0 mm | - | - | - |
| 1777993231 | 20° C | 59% | 993 hPa | 0 mm | - | - | - |
| 1777992932 | 20° C | 59% | 993 hPa | 0 mm | - | - | - |
| 1777991967 | 18.89° C | 61% | 993 hPa | 0 mm | - | - | - |
* Rain latest hour (hover to see other rain measurements)
** Current wind speed in m/s (hover to see current wind gust speed)